Aérodrome :
LOGIN :

S'inscrire | Disclaimer

   EN    FR    IT 

 










Légende :    VFR   VFR Marginal   IFR   IFR Intensif   IFR Très Intensif
Visi : 
Plafond : 
>= 8 km
>= 3000ft
5 à 8 km
1000 à 3000 ft
1500m à 5 km
500 à 1000 ft
800 à 1500m
200 à 500 ft
< 800m
< 200 ft
Symboles :   Orages  Brouillard  Fortes neiges  Fortes précipitations  Vent > 20 kt
SIGMETs :   Divers  Orages  Givrage  Turbulence  Onde Orograph.  Cendres Volcan.







- Altitude de l'aérodrome : 405 ft
- Code IATA : ODH


EGVO - RAF Odiham

DERNIER METAR :
  • 011650Z 22004KT 8000 -DZ SCT005 OVC014 06/06 Q0997 YLO1 TEMPO 7000 FEW005 BKN014 GRN

METARs EXPIRÉS :
  • 011627Z 23004KT 5000 -DZ BKN005 OVC014 06/05 Q0997 YLO1 TEMPO FEW005 GRN
  • 011550Z 24007KT 9999 7000S -RADZ FEW007 BKN015 OVC036 07/05 Q0997 WHT TEMPO SCT007 GRN
  • 011450Z 23006KT 9999 -RADZ SCT010 BKN042 07/05 Q0997 GRN TEMPO 7000 -DZ GRN

TAF TAF EGVO
Valide du 01 à 18h jusqu'au 02 à 06h UTC


011640Z 0118/0206 21010KT 9999 BKN030
TEMPO 0118/0120 6000 -RA BKN014
PROB40
TEMPO 0118/0120 4000 -DZ BKN005
PROB30
TEMPO 0118/0120 3000 DZ SCT004
BECMG 0119/0122 24018G30KT
PROB30
TEMPO 0120/0204 24025G40KT 4000 SHRA SCT018TCU
Pas de NOTAMs connus pour ce terrain.
1 SIGMET publié pour la FIR London (EGTT) :
 
Turbulence forte
EGTT SIGMET 01 VALID 011630/012000 EGRR
EGTT LONDON FIR SEV TURB FCST SW OF LINE N5113 W00736 - N4945 W00318 SFC/FL060 MOV ENE 25KT INTSF=



MET'MAP, la Météo Aéronautique d'un coup d'oeil ! - Copyright ORBIFLY Décembre 2007 - Disclaimer

ORBIFLY MET'MAP TEAM :

Programmation & Développement : Alexandra Zaïnal
Conception & Développement : Baudouin d'Aumeries
Co-Programmation & Développement : Marc-Olivier Méhu
Soutien technique & logistique : Manuel Goepfert

Contact : metmap@orbifly.com




SOURCES & CREDITS :

   NOAA